createdAt,value
2023-03-21T00:01:52.719Z,35.62
2023-03-21T00:04:21.597Z,35.63
2023-03-21T00:06:49.072Z,35.57
2023-03-21T00:09:16.700Z,35.63
2023-03-21T00:11:45.670Z,35.65
2023-03-21T00:14:20.148Z,35.63
2023-03-21T00:16:50.626Z,35.67
2023-03-21T00:19:19.303Z,35.69
2023-03-21T00:22:03.571Z,35.48
2023-03-21T00:24:33.460Z,35.63
2023-03-21T00:27:21.990Z,35.68
2023-03-21T00:29:52.052Z,35.75
2023-03-21T00:32:19.962Z,35.78
2023-03-21T00:35:02.357Z,35.81
2023-03-21T00:37:36.062Z,35.83
2023-03-21T00:40:16.413Z,35.91
2023-03-21T00:42:51.138Z,35.98
2023-03-21T00:45:19.350Z,36.05
2023-03-21T00:47:47.000Z,36.05
2023-03-21T00:50:14.796Z,36.06
2023-03-21T00:52:42.596Z,36.04
2023-03-21T00:55:13.748Z,36.04
2023-03-21T00:57:45.292Z,36.07
2023-03-21T01:00:15.358Z,36.01
2023-03-21T01:03:02.733Z,35.99
2023-03-21T01:05:55.708Z,36.00
2023-03-21T01:08:28.163Z,36.01
2023-03-21T01:10:56.934Z,36.04
2023-03-21T01:13:25.030Z,36.02
2023-03-21T01:15:54.210Z,36.07
2023-03-21T01:18:24.997Z,36.06
2023-03-21T01:20:52.967Z,36.06
2023-03-21T01:23:20.562Z,36.04
2023-03-21T01:25:49.471Z,36.10
2023-03-21T01:28:17.187Z,36.10
2023-03-21T01:30:46.371Z,36.07
2023-03-21T01:33:14.544Z,36.13
2023-03-21T01:35:51.612Z,36.09
2023-03-21T01:38:23.514Z,36.06
2023-03-21T01:40:51.460Z,36.08
2023-03-21T01:43:23.561Z,36.08
2023-03-21T01:46:06.698Z,36.11
2023-03-21T01:48:38.484Z,36.10
2023-03-21T01:51:06.629Z,36.13
2023-03-21T01:53:34.868Z,36.16
2023-03-21T01:56:07.106Z,36.16
2023-03-21T01:58:36.548Z,36.22
2023-03-21T02:01:05.267Z,36.25
2023-03-21T02:03:38.404Z,36.26
2023-03-21T02:06:09.919Z,36.28
2023-03-21T02:08:39.892Z,36.29
2023-03-21T02:11:08.236Z,36.26
2023-03-21T02:13:36.401Z,36.27
2023-03-21T02:16:20.081Z,36.27
2023-03-21T02:18:59.942Z,36.28
2023-03-21T02:21:29.033Z,36.29
2023-03-21T02:24:10.852Z,36.30
2023-03-21T02:26:48.194Z,36.29
2023-03-21T02:29:18.541Z,36.30
2023-03-21T02:31:58.809Z,36.28
2023-03-21T02:34:28.568Z,36.26
2023-03-21T02:37:03.151Z,36.29
2023-03-21T02:39:47.821Z,36.29
2023-03-21T02:42:22.023Z,36.29
2023-03-21T02:44:58.872Z,36.29
2023-03-21T02:47:33.572Z,36.29
2023-03-21T02:50:23.754Z,36.29
2023-03-21T02:52:52.276Z,36.27
2023-03-21T02:55:25.820Z,36.27
2023-03-21T02:57:56.514Z,36.33
2023-03-21T03:00:27.341Z,36.28
2023-03-21T03:03:08.203Z,36.30
2023-03-21T03:05:56.984Z,36.30
2023-03-21T03:08:59.737Z,36.27
2023-03-21T03:11:40.998Z,36.31
2023-03-21T03:14:49.974Z,36.31
2023-03-21T03:17:40.361Z,36.29
2023-03-21T03:20:17.465Z,36.35
2023-03-21T03:23:07.472Z,36.41
2023-03-21T03:25:49.014Z,36.39
2023-03-21T03:28:20.043Z,36.35
2023-03-21T03:31:01.213Z,36.39
2023-03-21T03:33:34.825Z,36.38
2023-03-21T03:36:06.496Z,36.36
2023-03-21T03:38:34.836Z,36.36
2023-03-21T03:41:04.000Z,36.31
2023-03-21T03:43:42.143Z,36.32
2023-03-21T03:46:13.861Z,36.34
2023-03-21T03:48:48.969Z,36.33
2023-03-21T03:51:21.848Z,36.34
2023-03-21T03:53:53.516Z,36.36
2023-03-21T03:56:21.431Z,36.38
2023-03-21T03:58:49.272Z,36.40
2023-03-21T04:01:17.750Z,36.39
2023-03-21T04:03:51.724Z,36.40
2023-03-21T04:06:24.421Z,36.41
2023-03-21T04:08:52.514Z,36.40
2023-03-21T04:11:19.984Z,36.41
2023-03-21T04:13:47.777Z,36.41
2023-03-21T04:16:19.355Z,36.43
2023-03-21T04:18:47.826Z,36.40
2023-03-21T04:21:18.384Z,36.47
2023-03-21T04:23:45.948Z,36.48
2023-03-21T04:26:13.469Z,36.45
2023-03-21T04:28:41.636Z,36.46
2023-03-21T04:31:24.476Z,36.47
2023-03-21T04:33:53.777Z,36.47
2023-03-21T04:36:27.327Z,36.48
2023-03-21T04:39:00.788Z,36.53
2023-03-21T04:41:28.724Z,36.59
2023-03-21T04:43:57.263Z,36.55
2023-03-21T04:46:24.800Z,36.56
2023-03-21T04:48:52.233Z,36.56
2023-03-21T04:51:20.060Z,36.54
2023-03-21T04:53:49.430Z,36.55
2023-03-21T04:56:16.997Z,36.51
2023-03-21T04:58:45.423Z,36.49
2023-03-21T05:01:14.474Z,36.51
2023-03-21T05:03:42.792Z,36.49
2023-03-21T05:06:10.823Z,36.50
2023-03-21T05:08:38.257Z,36.50
2023-03-21T05:11:06.018Z,36.49
2023-03-21T05:13:33.865Z,36.50
2023-03-21T05:16:01.292Z,36.50
2023-03-21T05:18:30.467Z,36.48
2023-03-21T05:20:58.762Z,36.48
2023-03-21T05:23:31.769Z,36.47
2023-03-21T05:25:59.918Z,36.48
2023-03-21T05:28:31.744Z,36.48
2023-03-21T05:30:59.548Z,36.48
2023-03-21T05:33:27.074Z,36.49
2023-03-21T05:35:54.620Z,36.49
2023-03-21T05:38:22.506Z,36.48
2023-03-21T05:40:50.472Z,36.51
2023-03-21T05:43:17.996Z,36.51
2023-03-21T05:45:45.839Z,36.50
2023-03-21T05:48:13.643Z,36.53
2023-03-21T05:50:42.860Z,36.53
2023-03-21T05:53:10.996Z,36.48
2023-03-21T05:55:38.937Z,36.48
2023-03-21T05:58:08.089Z,36.50
2023-03-21T06:00:36.112Z,36.48
2023-03-21T06:03:06.109Z,36.51
2023-03-21T06:05:34.051Z,36.51
2023-03-21T06:08:01.610Z,36.54
2023-03-21T06:10:29.720Z,36.55
2023-03-21T06:12:57.990Z,36.56
2023-03-21T06:15:26.763Z,36.62
2023-03-21T06:17:54.897Z,36.57
2023-03-21T06:20:22.832Z,36.57
2023-03-21T06:22:50.854Z,36.65
2023-03-21T06:25:19.027Z,36.64
2023-03-21T06:27:46.591Z,36.66
2023-03-21T06:30:15.326Z,36.66
2023-03-21T06:32:45.102Z,36.69
2023-03-21T06:35:12.843Z,36.71
2023-03-21T06:37:40.504Z,36.68
2023-03-21T06:40:11.126Z,36.63
2023-03-21T06:42:38.642Z,36.52
2023-03-21T06:45:06.905Z,36.44
2023-03-21T06:47:34.632Z,36.40
2023-03-21T06:50:02.668Z,36.34
2023-03-21T06:52:31.965Z,36.30
2023-03-21T06:54:59.695Z,36.22
2023-03-21T06:57:27.135Z,36.20
2023-03-21T06:59:54.673Z,36.17
2023-03-21T07:02:23.336Z,36.16
2023-03-21T07:04:51.187Z,36.16
2023-03-21T07:07:19.029Z,36.13
2023-03-21T07:09:47.396Z,36.12
2023-03-21T07:12:14.937Z,36.09
2023-03-21T07:14:43.394Z,36.10
2023-03-21T07:17:11.207Z,36.18
2023-03-21T07:19:38.667Z,36.17
2023-03-21T07:22:06.106Z,36.16
2023-03-21T07:24:33.875Z,36.14
2023-03-21T07:27:01.385Z,36.14
2023-03-21T07:29:28.858Z,36.11
2023-03-21T07:31:56.675Z,36.06
2023-03-21T07:34:24.180Z,36.03
2023-03-21T07:36:51.682Z,36.01
2023-03-21T07:39:20.567Z,36.01
2023-03-21T07:41:47.986Z,36.08
2023-03-21T07:44:19.882Z,36.12
2023-03-21T07:46:47.639Z,36.14
2023-03-21T07:49:16.577Z,36.21
2023-03-21T07:51:44.003Z,36.21
2023-03-21T07:54:11.759Z,36.23
2023-03-21T07:56:39.169Z,36.31
2023-03-21T07:59:07.418Z,36.36
2023-03-21T08:01:35.177Z,36.38
2023-03-21T08:04:02.893Z,36.38
2023-03-21T08:06:32.408Z,36.36
2023-03-21T08:08:59.858Z,36.34
2023-03-21T08:11:31.331Z,36.32
2023-03-21T08:13:59.644Z,36.28
2023-03-21T08:16:27.896Z,36.25
2023-03-21T08:18:55.477Z,36.23
2023-03-21T08:21:22.927Z,36.21
2023-03-21T08:23:50.641Z,36.20
2023-03-21T08:26:18.508Z,36.21
2023-03-21T08:28:46.449Z,36.27
2023-03-21T08:31:14.948Z,36.39
2023-03-21T08:33:42.422Z,36.49
2023-03-21T08:36:10.386Z,36.59
2023-03-21T08:38:38.406Z,36.67
2023-03-21T08:41:06.060Z,36.71
2023-03-21T08:43:33.500Z,36.75
2023-03-21T08:46:04.207Z,36.79
2023-03-21T08:48:31.670Z,36.79
2023-03-21T08:51:02.274Z,36.79
2023-03-21T08:53:30.066Z,36.88
2023-03-21T08:55:57.521Z,36.91
2023-03-21T08:58:24.953Z,36.97
2023-03-21T09:00:53.160Z,37.04
2023-03-21T09:03:20.648Z,37.06
2023-03-21T09:05:48.177Z,37.15
2023-03-21T09:08:15.924Z,37.24
2023-03-21T09:10:43.357Z,37.33
2023-03-21T09:13:10.840Z,37.42
2023-03-21T09:15:39.403Z,37.46
2023-03-21T09:18:13.462Z,37.49
2023-03-21T09:20:43.075Z,37.53
2023-03-21T09:23:11.482Z,37.57
2023-03-21T09:25:39.422Z,37.52
2023-03-21T09:28:08.126Z,37.64
2023-03-21T09:30:36.646Z,37.48
2023-03-21T09:33:06.584Z,37.27
2023-03-21T09:35:34.944Z,37.12
2023-03-21T09:38:03.002Z,37.01
2023-03-21T09:41:04.527Z,36.97
2023-03-21T09:43:39.712Z,36.91
2023-03-21T09:46:32.587Z,36.93
2023-03-21T09:49:03.110Z,36.90
2023-03-21T09:51:33.512Z,36.94
2023-03-21T09:54:06.749Z,36.90
2023-03-21T09:56:36.622Z,36.83
2023-03-21T09:59:05.062Z,36.76
2023-03-21T10:01:41.930Z,36.58
2023-03-21T10:04:12.914Z,36.03
2023-03-21T10:06:41.208Z,35.45
2023-03-21T10:09:15.104Z,35.01
2023-03-21T10:12:08.322Z,34.53
2023-03-21T10:14:44.035Z,34.42
2023-03-21T10:17:33.753Z,34.24
2023-03-21T10:20:21.418Z,34.03
2023-03-21T10:22:51.230Z,33.86
2023-03-21T10:25:21.346Z,33.49
2023-03-21T10:27:49.089Z,33.20
2023-03-21T10:30:46.566Z,33.19
2023-03-21T10:33:20.640Z,33.35
2023-03-21T10:35:57.244Z,33.51
2023-03-21T10:38:25.572Z,33.64
2023-03-21T10:40:53.168Z,33.67
2023-03-21T10:43:30.218Z,33.74
2023-03-21T10:45:58.130Z,33.78
2023-03-21T10:48:26.097Z,33.82
2023-03-21T10:50:54.855Z,33.94
2023-03-21T10:53:32.633Z,33.98
2023-03-21T10:56:00.679Z,34.00
2023-03-21T10:58:33.369Z,34.06
2023-03-21T11:01:05.785Z,34.12
2023-03-21T11:03:37.693Z,34.21
2023-03-21T11:06:26.504Z,34.35
2023-03-21T11:08:55.575Z,34.39
2023-03-21T11:11:29.881Z,34.46
2023-03-21T11:14:06.708Z,34.52
2023-03-21T11:16:39.022Z,34.43
2023-03-21T11:19:19.221Z,34.34
2023-03-21T11:21:46.685Z,34.27
2023-03-21T11:24:18.113Z,34.14
2023-03-21T11:26:48.129Z,34.06
2023-03-21T11:29:19.418Z,33.95
2023-03-21T11:31:47.016Z,33.86
2023-03-21T11:34:39.162Z,33.78
2023-03-21T11:37:18.201Z,33.71
2023-03-21T11:39:45.687Z,33.63
2023-03-21T11:42:33.080Z,33.61
2023-03-21T11:45:02.987Z,33.56
2023-03-21T11:47:31.697Z,33.56
2023-03-21T11:50:04.908Z,33.51
2023-03-21T11:52:38.897Z,33.49
2023-03-21T11:55:31.554Z,33.49
2023-03-21T11:58:26.500Z,33.46
2023-03-21T12:01:15.320Z,33.42
2023-03-21T12:03:48.750Z,33.42
2023-03-21T12:06:22.422Z,33.46
2023-03-21T12:09:08.678Z,33.48
2023-03-21T12:12:05.102Z,33.49
2023-03-21T12:15:02.592Z,33.50
2023-03-21T12:17:54.575Z,33.53
2023-03-21T12:20:43.272Z,33.55
2023-03-21T12:23:13.480Z,33.59
2023-03-21T12:25:45.958Z,33.64
2023-03-21T12:28:35.696Z,33.70
2023-03-21T12:31:12.085Z,33.74
2023-03-21T12:33:46.678Z,33.76
2023-03-21T12:36:30.881Z,33.79
2023-03-21T12:39:08.737Z,33.78
2023-03-21T12:41:44.049Z,33.79
2023-03-21T12:44:20.352Z,33.80
2023-03-21T12:46:50.925Z,33.81
2023-03-21T12:49:36.018Z,33.84
2023-03-21T12:52:09.471Z,33.85
2023-03-21T12:54:42.760Z,33.88
2023-03-21T12:57:28.619Z,33.89
2023-03-21T13:00:00.825Z,33.90
2023-03-21T13:02:38.233Z,33.96
2023-03-21T13:05:29.115Z,33.96
2023-03-21T13:08:28.197Z,33.97
2023-03-21T13:10:55.714Z,34.02
2023-03-21T13:13:36.822Z,34.03
2023-03-21T13:16:38.722Z,34.05
2023-03-21T13:19:34.477Z,34.06
2023-03-21T13:22:23.591Z,34.07
2023-03-21T13:24:58.064Z,34.14
2023-03-21T13:27:39.441Z,34.17
2023-03-21T13:30:21.860Z,34.20
2023-03-21T13:32:50.382Z,34.22
2023-03-21T13:35:29.051Z,34.28
2023-03-21T13:38:16.523Z,34.29
2023-03-21T13:40:52.006Z,34.33
2023-03-21T13:43:45.731Z,34.37
2023-03-21T13:46:14.606Z,34.36
2023-03-21T13:48:49.395Z,34.41
2023-03-21T13:51:44.487Z,34.46
2023-03-21T13:54:17.654Z,34.44
2023-03-21T13:56:48.074Z,34.45
2023-03-21T13:59:34.025Z,34.48
2023-03-21T14:02:06.107Z,34.34
2023-03-21T14:04:42.427Z,34.45
2023-03-21T14:07:22.615Z,34.48
2023-03-21T14:09:54.949Z,34.50
2023-03-21T14:12:37.101Z,34.52
2023-03-21T14:15:29.243Z,34.55
2023-03-21T14:18:10.768Z,34.58
2023-03-21T14:20:53.693Z,34.62
2023-03-21T14:23:21.252Z,34.72
2023-03-21T14:25:49.400Z,34.71
2023-03-21T14:28:21.838Z,34.65
2023-03-21T14:30:54.742Z,34.63
2023-03-21T14:33:36.236Z,34.63
2023-03-21T14:36:11.740Z,34.59
2023-03-21T14:38:39.892Z,34.60
2023-03-21T14:41:23.080Z,34.59
2023-03-21T14:44:09.510Z,34.56
2023-03-21T14:46:37.365Z,34.48
2023-03-21T14:49:30.330Z,34.49
2023-03-21T14:52:06.832Z,34.46
2023-03-21T14:54:34.355Z,34.38
2023-03-21T14:57:03.783Z,34.30
2023-03-21T14:59:36.547Z,34.22
2023-03-21T15:02:23.116Z,34.18
2023-03-21T15:04:52.789Z,34.10
2023-03-21T15:07:28.428Z,34.10
2023-03-21T15:09:57.837Z,34.08
2023-03-21T15:12:25.562Z,34.08
2023-03-21T15:14:53.053Z,34.07
2023-03-21T15:17:20.862Z,34.09
2023-03-21T15:19:48.576Z,34.22
2023-03-21T15:22:20.896Z,34.35
2023-03-21T15:24:52.436Z,34.34
2023-03-21T15:27:20.540Z,34.38
2023-03-21T15:29:49.197Z,34.50
2023-03-21T15:32:18.960Z,34.51
2023-03-21T15:34:46.564Z,34.57
2023-03-21T15:37:25.733Z,34.59
2023-03-21T15:39:54.566Z,34.62
2023-03-21T15:42:30.186Z,34.62
2023-03-21T15:45:00.814Z,34.66
2023-03-21T15:47:54.484Z,34.67
2023-03-21T15:50:27.058Z,34.67
2023-03-21T15:52:54.538Z,34.71
2023-03-21T15:55:26.935Z,34.72
2023-03-21T15:57:59.970Z,34.76
2023-03-21T16:00:35.909Z,34.77
2023-03-21T16:03:19.441Z,34.80
2023-03-21T16:06:15.455Z,34.80
2023-03-21T16:08:47.288Z,34.79
2023-03-21T16:11:16.358Z,34.87
2023-03-21T16:13:44.113Z,34.91
2023-03-21T16:16:26.427Z,34.89
2023-03-21T16:18:54.873Z,34.90
2023-03-21T16:21:23.721Z,34.95
2023-03-21T16:23:51.214Z,34.99
2023-03-21T16:26:27.684Z,34.98
2023-03-21T16:28:55.444Z,34.99
2023-03-21T16:31:24.711Z,34.98
2023-03-21T16:33:52.196Z,34.97
2023-03-21T16:36:21.968Z,34.95
2023-03-21T16:38:49.695Z,34.97
2023-03-21T16:41:17.114Z,34.80
2023-03-21T16:43:44.625Z,34.92
2023-03-21T16:46:16.865Z,34.92
2023-03-21T16:48:46.702Z,34.89
2023-03-21T16:51:15.541Z,34.86
2023-03-21T16:53:43.799Z,34.68
2023-03-21T16:56:24.343Z,34.70
2023-03-21T16:58:53.621Z,34.70
2023-03-21T17:01:27.353Z,34.69
2023-03-21T17:03:55.607Z,34.68
2023-03-21T17:06:26.767Z,34.66
2023-03-21T17:08:55.489Z,34.62
2023-03-21T17:11:24.319Z,34.59
2023-03-21T17:13:53.718Z,34.50
2023-03-21T17:16:25.466Z,34.46
2023-03-21T17:18:55.812Z,34.45
2023-03-21T17:21:25.110Z,34.50
2023-03-21T17:23:52.921Z,34.58
2023-03-21T17:26:27.020Z,34.61
2023-03-21T17:28:57.157Z,34.70
2023-03-21T17:31:26.007Z,34.73
2023-03-21T17:33:54.156Z,34.82
2023-03-21T17:36:27.101Z,34.84
2023-03-21T17:38:55.491Z,34.92
2023-03-21T17:41:23.518Z,34.97
2023-03-21T17:43:51.802Z,35.00
2023-03-21T17:46:21.116Z,35.05
2023-03-21T17:48:48.910Z,35.10
2023-03-21T17:51:17.279Z,35.09
2023-03-21T17:53:48.866Z,35.09
2023-03-21T17:56:31.609Z,35.11
2023-03-21T17:59:12.229Z,35.05
2023-03-21T18:01:39.672Z,35.06
2023-03-21T18:04:08.195Z,34.90
2023-03-21T18:06:37.366Z,35.00
2023-03-21T18:09:11.423Z,35.06
2023-03-21T18:11:39.971Z,35.04
2023-03-21T18:14:16.258Z,34.99
2023-03-21T18:16:48.112Z,34.98
2023-03-21T18:19:17.419Z,34.92
2023-03-21T18:21:46.120Z,34.92
2023-03-21T18:24:14.983Z,34.88
2023-03-21T18:26:44.016Z,34.86
2023-03-21T18:32:07.788Z,34.81
2023-03-21T18:34:39.124Z,34.79
2023-03-21T18:37:12.658Z,34.78
2023-03-21T18:39:44.461Z,34.77
2023-03-21T18:42:17.738Z,34.77
2023-03-21T18:44:48.377Z,34.75
2023-03-21T18:47:18.860Z,34.75
2023-03-21T18:50:13.794Z,34.74
2023-03-21T18:52:36.710Z,34.73
2023-03-21T18:55:06.229Z,34.72
2023-03-21T18:57:38.265Z,34.78
2023-03-21T19:00:17.658Z,34.81
2023-03-21T19:02:48.495Z,34.84
2023-03-21T19:05:23.282Z,34.90
2023-03-21T19:07:52.164Z,35.02
2023-03-21T19:10:22.859Z,35.05
2023-03-21T19:12:53.073Z,35.06
2023-03-21T19:15:22.291Z,35.03
2023-03-21T19:18:34.423Z,34.95
2023-03-21T19:20:49.270Z,34.89
2023-03-21T19:23:18.827Z,34.61
2023-03-21T19:25:47.728Z,34.62
2023-03-21T19:28:16.632Z,34.57
2023-03-21T19:30:50.064Z,34.52
2023-03-21T19:33:23.199Z,34.44
2023-03-21T19:36:10.729Z,34.34
2023-03-21T19:38:42.984Z,34.26
2023-03-21T19:41:11.605Z,34.15
2023-03-21T19:43:53.114Z,33.99
2023-03-21T19:46:27.907Z,34.00
2023-03-21T19:48:56.988Z,34.00
2023-03-21T19:51:30.110Z,33.98
2023-03-21T19:54:02.026Z,33.93
2023-03-21T19:56:31.896Z,33.91
2023-03-21T19:59:02.737Z,33.88
2023-03-21T20:01:35.077Z,33.82
2023-03-21T20:04:05.251Z,33.80
2023-03-21T20:06:34.682Z,33.78
2023-03-21T20:09:47.133Z,33.74
2023-03-21T20:11:53.742Z,33.70
2023-03-21T20:14:22.537Z,33.68
2023-03-21T20:16:55.059Z,33.72
2023-03-21T20:19:25.035Z,33.72
2023-03-21T20:21:59.883Z,33.79
2023-03-21T20:24:32.972Z,33.83
2023-03-21T20:27:03.212Z,33.88
2023-03-21T20:30:08.480Z,33.94
2023-03-21T20:32:24.911Z,33.96
2023-03-21T20:35:07.997Z,34.02
2023-03-21T20:37:50.362Z,34.16
2023-03-21T20:40:23.215Z,34.17
2023-03-21T20:42:56.344Z,34.20
2023-03-21T20:45:25.918Z,32.02
2023-03-21T20:47:55.117Z,32.24
2023-03-21T20:50:23.786Z,32.68
2023-03-21T20:53:05.882Z,33.00
2023-03-21T20:55:37.100Z,33.04
2023-03-21T20:58:26.823Z,33.03
2023-03-21T21:00:54.203Z,33.07
2023-03-21T21:03:24.044Z,33.11
2023-03-21T21:05:53.802Z,33.18
2023-03-21T21:08:22.320Z,33.21
2023-03-21T21:11:32.648Z,33.32
2023-03-21T21:13:39.120Z,33.40
2023-03-21T21:16:07.414Z,33.42
2023-03-21T21:18:35.091Z,33.52
2023-03-21T21:21:05.914Z,33.60
2023-03-21T21:23:33.727Z,33.67
2023-03-21T21:26:01.179Z,33.58
2023-03-21T21:28:30.393Z,33.79
2023-03-21T21:30:58.756Z,33.92
2023-03-21T21:33:29.198Z,34.01
2023-03-21T21:35:57.014Z,34.04
2023-03-21T21:38:25.028Z,34.06
2023-03-21T21:40:52.840Z,34.07
2023-03-21T21:43:21.129Z,34.12
2023-03-21T21:45:48.718Z,34.16
2023-03-21T21:48:16.974Z,34.17
2023-03-21T21:50:44.876Z,34.17
2023-03-21T21:53:12.396Z,34.21
2023-03-21T21:55:40.055Z,34.26
2023-03-21T21:58:08.569Z,34.22
2023-03-21T22:00:37.141Z,34.22
2023-03-21T22:03:05.101Z,34.22
2023-03-21T22:05:32.596Z,34.25
2023-03-21T22:08:00.117Z,34.26
2023-03-21T22:10:27.925Z,34.30
2023-03-21T22:12:55.354Z,34.34
2023-03-21T22:15:23.851Z,34.50
2023-03-21T22:17:51.641Z,34.52
2023-03-21T22:20:19.697Z,34.45
2023-03-21T22:22:47.133Z,34.46
2023-03-21T22:25:15.741Z,34.48
2023-03-21T22:27:43.282Z,34.54
2023-03-21T22:30:14.149Z,34.61
2023-03-21T22:32:41.897Z,34.69
2023-03-21T22:35:09.763Z,34.70
2023-03-21T22:37:39.041Z,34.73
2023-03-21T22:40:08.352Z,34.76
2023-03-21T22:42:37.139Z,34.82
2023-03-21T22:45:06.177Z,34.88
2023-03-21T22:47:33.920Z,34.93
2023-03-21T22:50:01.458Z,34.93
2023-03-21T22:52:28.890Z,34.93
2023-03-21T22:54:56.598Z,35.00
2023-03-21T22:57:24.085Z,34.93
2023-03-21T22:59:51.566Z,35.04
2023-03-21T23:02:19.280Z,35.08
2023-03-21T23:04:46.847Z,35.13
2023-03-21T23:07:14.527Z,35.20
2023-03-21T23:09:42.245Z,35.17
2023-03-21T23:12:09.722Z,35.25
2023-03-21T23:14:37.199Z,35.27
2023-03-21T23:17:04.901Z,35.28
2023-03-21T23:19:32.435Z,35.28
2023-03-21T23:21:59.849Z,35.35
2023-03-21T23:24:27.604Z,35.43
2023-03-21T23:26:55.065Z,35.41
2023-03-21T23:29:22.477Z,35.41
2023-03-21T23:31:50.263Z,35.43
2023-03-21T23:34:17.745Z,35.50
2023-03-21T23:36:45.284Z,35.51
2023-03-21T23:39:13.042Z,35.52
2023-03-21T23:41:42.779Z,35.54
2023-03-21T23:44:10.357Z,35.57
2023-03-21T23:46:38.138Z,35.55
2023-03-21T23:49:05.874Z,35.58
2023-03-21T23:51:33.326Z,35.61
2023-03-21T23:54:01.084Z,35.66
2023-03-21T23:56:28.724Z,35.68
2023-03-21T23:58:57.084Z,35.72
